<?xml version="1.0" encoding="UTF-8" standalone="no" ?>
<gpx xmlns="http://www.topografix.com/GPX/1/1" xmlns:xsi="http://www.w3.org/2001/XMLSchema-instance" xsi:schemaLocation="http://www.topografix.com/GPX/1/1 http://www.topografix.com/GPX/1/1/gpx.xsd" version="1.1" creator="VisuGPX - https://www.visugpx.com">
  <metadata>
    <name>Strasbourg Molsheim</name>
  </metadata>
  <trk>
    <name><![CDATA[Randonnée du 14/06/2022 à 11:45]]></name>
    <trkseg>
      <trkpt lat="48.58156" lon="7.75014">
        <ele>153</ele>
        <time>2022-06-14T11:47:15+02:00</time>
      </trkpt>
      <trkpt lat="48.58112" lon="7.75035">
        <ele>151</ele>
        <time>2022-06-14T11:48:08+02:00</time>
      </trkpt>
      <trkpt lat="48.57996" lon="7.75149">
        <ele>141</ele>
        <time>2022-06-14T11:50:47+02:00</time>
      </trkpt>
      <trkpt lat="48.57928" lon="7.74985">
        <ele>143</ele>
        <time>2022-06-14T11:53:34+02:00</time>
      </trkpt>
      <trkpt lat="48.57905" lon="7.74919">
        <ele>141</ele>
        <time>2022-06-14T11:54:30+02:00</time>
      </trkpt>
      <trkpt lat="48.57883" lon="7.74799">
        <ele>143</ele>
        <time>2022-06-14T11:56:25+02:00</time>
      </trkpt>
      <trkpt lat="48.57879" lon="7.74751">
        <ele>144</ele>
        <time>2022-06-14T11:57:12+02:00</time>
      </trkpt>
      <trkpt lat="48.5791" lon="7.74497">
        <ele>138</ele>
        <time>2022-06-14T12:00:28+02:00</time>
      </trkpt>
      <trkpt lat="48.57958" lon="7.74411">
        <ele>144</ele>
        <time>2022-06-14T12:02:54+02:00</time>
      </trkpt>
      <trkpt lat="48.58036" lon="7.74313">
        <ele>141</ele>
        <time>2022-06-14T12:04:50+02:00</time>
      </trkpt>
      <trkpt lat="48.58093" lon="7.74248">
        <ele>141</ele>
        <time>2022-06-14T12:06:12+02:00</time>
      </trkpt>
      <trkpt lat="48.58099" lon="7.74259">
        <ele>142</ele>
        <time>2022-06-14T12:06:33+02:00</time>
      </trkpt>
      <trkpt lat="48.58152" lon="7.74179">
        <ele>144</ele>
        <time>2022-06-14T12:08:19+02:00</time>
      </trkpt>
      <trkpt lat="48.58156" lon="7.74151">
        <ele>143</ele>
        <time>2022-06-14T12:08:40+02:00</time>
      </trkpt>
      <trkpt lat="48.58111" lon="7.74151">
        <ele>140</ele>
        <time>2022-06-14T12:09:31+02:00</time>
      </trkpt>
      <trkpt lat="48.58106" lon="7.74117">
        <ele>138</ele>
        <time>2022-06-14T12:09:58+02:00</time>
      </trkpt>
      <trkpt lat="48.58116" lon="7.74112">
        <ele>139</ele>
        <time>2022-06-14T12:10:20+02:00</time>
      </trkpt>
      <trkpt lat="48.58098" lon="7.73998">
        <ele>138</ele>
        <time>2022-06-14T12:11:49+02:00</time>
      </trkpt>
      <trkpt lat="48.58079" lon="7.73946">
        <ele>140</ele>
        <time>2022-06-14T12:12:54+02:00</time>
      </trkpt>
      <trkpt lat="48.58049" lon="7.73907">
        <ele>140</ele>
        <time>2022-06-14T12:13:39+02:00</time>
      </trkpt>
      <trkpt lat="48.57956" lon="7.73971">
        <ele>141</ele>
        <time>2022-06-14T12:15:46+02:00</time>
      </trkpt>
      <trkpt lat="48.5791" lon="7.73878">
        <ele>141</ele>
        <time>2022-06-14T12:17:14+02:00</time>
      </trkpt>
      <trkpt lat="48.57916" lon="7.73845">
        <ele>140</ele>
        <time>2022-06-14T12:17:40+02:00</time>
      </trkpt>
      <trkpt lat="48.57912" lon="7.73765">
        <ele>138</ele>
        <time>2022-06-14T12:18:41+02:00</time>
      </trkpt>
      <trkpt lat="48.57832" lon="7.73695">
        <ele>141</ele>
        <time>2022-06-14T12:20:57+02:00</time>
      </trkpt>
      <trkpt lat="48.57807" lon="7.73688">
        <ele>141</ele>
        <time>2022-06-14T12:21:26+02:00</time>
      </trkpt>
      <trkpt lat="48.57767" lon="7.73683">
        <ele>141</ele>
        <time>2022-06-14T12:22:12+02:00</time>
      </trkpt>
      <trkpt lat="48.57648" lon="7.73733">
        <ele>143</ele>
        <time>2022-06-14T12:24:54+02:00</time>
      </trkpt>
      <trkpt lat="48.57578" lon="7.73736">
        <ele>143</ele>
        <time>2022-06-14T12:26:15+02:00</time>
      </trkpt>
      <trkpt lat="48.57471" lon="7.73694">
        <ele>136</ele>
        <time>2022-06-14T12:28:21+02:00</time>
      </trkpt>
      <trkpt lat="48.57447" lon="7.73691">
        <ele>136</ele>
        <time>2022-06-14T12:28:49+02:00</time>
      </trkpt>
      <trkpt lat="48.57433" lon="7.73736">
        <ele>139</ele>
        <time>2022-06-14T12:29:57+02:00</time>
      </trkpt>
      <trkpt lat="48.57433" lon="7.73782">
        <ele>140</ele>
        <time>2022-06-14T12:30:42+02:00</time>
      </trkpt>
      <trkpt lat="48.57437" lon="7.73785">
        <ele>140</ele>
        <time>2022-06-14T12:30:47+02:00</time>
      </trkpt>
      <trkpt lat="48.57433" lon="7.73823">
        <ele>141</ele>
        <time>2022-06-14T12:31:26+02:00</time>
      </trkpt>
      <trkpt lat="48.57401" lon="7.73814">
        <ele>140</ele>
        <time>2022-06-14T12:32:03+02:00</time>
      </trkpt>
      <trkpt lat="48.57402" lon="7.73754">
        <ele>139</ele>
        <time>2022-06-14T12:32:48+02:00</time>
      </trkpt>
      <trkpt lat="48.57392" lon="7.737">
        <ele>137</ele>
        <time>2022-06-14T12:33:31+02:00</time>
      </trkpt>
      <trkpt lat="48.57366" lon="7.7365">
        <ele>138</ele>
        <time>2022-06-14T12:34:29+02:00</time>
      </trkpt>
      <trkpt lat="48.573" lon="7.73593">
        <ele>140</ele>
        <time>2022-06-14T12:36:17+02:00</time>
      </trkpt>
      <trkpt lat="48.57352" lon="7.73488">
        <ele>142</ele>
        <time>2022-06-14T12:38:17+02:00</time>
      </trkpt>
      <trkpt lat="48.57359" lon="7.73507">
        <ele>142</ele>
        <time>2022-06-14T12:38:34+02:00</time>
      </trkpt>
      <trkpt lat="48.57346" lon="7.73491">
        <ele>142</ele>
        <time>2022-06-14T12:38:53+02:00</time>
      </trkpt>
      <trkpt lat="48.57286" lon="7.73368">
        <ele>139</ele>
        <time>2022-06-14T12:40:49+02:00</time>
      </trkpt>
      <trkpt lat="48.57274" lon="7.73355">
        <ele>139</ele>
        <time>2022-06-14T12:41:06+02:00</time>
      </trkpt>
      <trkpt lat="48.57258" lon="7.73279">
        <ele>138</ele>
        <time>2022-06-14T12:42:06+02:00</time>
      </trkpt>
      <trkpt lat="48.57265" lon="7.73215">
        <ele>138</ele>
        <time>2022-06-14T12:42:55+02:00</time>
      </trkpt>
      <trkpt lat="48.57267" lon="7.73175">
        <ele>139</ele>
        <time>2022-06-14T12:43:36+02:00</time>
      </trkpt>
      <trkpt lat="48.57282" lon="7.73124">
        <ele>139</ele>
        <time>2022-06-14T12:44:18+02:00</time>
      </trkpt>
      <trkpt lat="48.57263" lon="7.72941">
        <ele>138</ele>
        <time>2022-06-14T12:46:39+02:00</time>
      </trkpt>
      <trkpt lat="48.57245" lon="7.729">
        <ele>137</ele>
        <time>2022-06-14T12:47:16+02:00</time>
      </trkpt>
      <trkpt lat="48.57208" lon="7.7272">
        <ele>140</ele>
        <time>2022-06-14T12:50:09+02:00</time>
      </trkpt>
      <trkpt lat="48.57193" lon="7.72551">
        <ele>139</ele>
        <time>2022-06-14T12:52:18+02:00</time>
      </trkpt>
      <trkpt lat="48.57204" lon="7.72505">
        <ele>138</ele>
        <time>2022-06-14T12:52:55+02:00</time>
      </trkpt>
      <trkpt lat="48.57188" lon="7.72482">
        <ele>138</ele>
        <time>2022-06-14T12:53:20+02:00</time>
      </trkpt>
      <trkpt lat="48.57178" lon="7.72451">
        <ele>137</ele>
        <time>2022-06-14T12:53:47+02:00</time>
      </trkpt>
      <trkpt lat="48.57178" lon="7.72403">
        <ele>137</ele>
        <time>2022-06-14T12:54:23+02:00</time>
      </trkpt>
      <trkpt lat="48.57179" lon="7.72375">
        <ele>138</ele>
        <time>2022-06-14T12:54:55+02:00</time>
      </trkpt>
      <trkpt lat="48.57166" lon="7.72337">
        <ele>139</ele>
        <time>2022-06-14T12:55:37+02:00</time>
      </trkpt>
      <trkpt lat="48.57157" lon="7.72301">
        <ele>139</ele>
        <time>2022-06-14T12:56:06+02:00</time>
      </trkpt>
      <trkpt lat="48.57139" lon="7.7228">
        <ele>140</ele>
        <time>2022-06-14T12:56:43+02:00</time>
      </trkpt>
      <trkpt lat="48.57018" lon="7.71997">
        <ele>141</ele>
        <time>2022-06-14T13:01:09+02:00</time>
      </trkpt>
      <trkpt lat="48.57013" lon="7.71922">
        <ele>139</ele>
        <time>2022-06-14T13:02:06+02:00</time>
      </trkpt>
      <trkpt lat="48.57047" lon="7.71804">
        <ele>139</ele>
        <time>2022-06-14T13:03:44+02:00</time>
      </trkpt>
      <trkpt lat="48.57078" lon="7.7175">
        <ele>138</ele>
        <time>2022-06-14T13:04:39+02:00</time>
      </trkpt>
      <trkpt lat="48.57108" lon="7.7164">
        <ele>138</ele>
        <time>2022-06-14T13:06:08+02:00</time>
      </trkpt>
      <trkpt lat="48.57107" lon="7.71598">
        <ele>139</ele>
        <time>2022-06-14T13:06:50+02:00</time>
      </trkpt>
      <trkpt lat="48.57098" lon="7.71543">
        <ele>140</ele>
        <time>2022-06-14T13:07:43+02:00</time>
      </trkpt>
      <trkpt lat="48.57024" lon="7.71417">
        <ele>145</ele>
        <time>2022-06-14T13:10:42+02:00</time>
      </trkpt>
      <trkpt lat="48.56995" lon="7.71403">
        <ele>144</ele>
        <time>2022-06-14T13:11:17+02:00</time>
      </trkpt>
      <trkpt lat="48.56983" lon="7.71389">
        <ele>144</ele>
        <time>2022-06-14T13:11:34+02:00</time>
      </trkpt>
      <trkpt lat="48.56973" lon="7.71353">
        <ele>143</ele>
        <time>2022-06-14T13:12:04+02:00</time>
      </trkpt>
      <trkpt lat="48.56959" lon="7.71307">
        <ele>143</ele>
        <time>2022-06-14T13:12:42+02:00</time>
      </trkpt>
      <trkpt lat="48.56957" lon="7.71236">
        <ele>144</ele>
        <time>2022-06-14T13:13:46+02:00</time>
      </trkpt>
      <trkpt lat="48.57001" lon="7.71166">
        <ele>141</ele>
        <time>2022-06-14T13:14:59+02:00</time>
      </trkpt>
      <trkpt lat="48.5702" lon="7.71099">
        <ele>141</ele>
        <time>2022-06-14T13:15:54+02:00</time>
      </trkpt>
      <trkpt lat="48.57044" lon="7.71039">
        <ele>140</ele>
        <time>2022-06-14T13:16:47+02:00</time>
      </trkpt>
      <trkpt lat="48.57045" lon="7.71003">
        <ele>140</ele>
        <time>2022-06-14T13:17:14+02:00</time>
      </trkpt>
      <trkpt lat="48.57055" lon="7.70965">
        <ele>140</ele>
        <time>2022-06-14T13:17:45+02:00</time>
      </trkpt>
      <trkpt lat="48.57063" lon="7.70959">
        <ele>140</ele>
        <time>2022-06-14T13:17:55+02:00</time>
      </trkpt>
      <trkpt lat="48.57075" lon="7.70915">
        <ele>140</ele>
        <time>2022-06-14T13:18:31+02:00</time>
      </trkpt>
      <trkpt lat="48.57059" lon="7.70901">
        <ele>140</ele>
        <time>2022-06-14T13:18:53+02:00</time>
      </trkpt>
      <trkpt lat="48.57133" lon="7.70646">
        <ele>141</ele>
        <time>2022-06-14T13:22:34+02:00</time>
      </trkpt>
      <trkpt lat="48.57148" lon="7.70602">
        <ele>140</ele>
        <time>2022-06-14T13:23:12+02:00</time>
      </trkpt>
      <trkpt lat="48.57278" lon="7.70134">
        <ele>142</ele>
        <time>2022-06-14T13:29:57+02:00</time>
      </trkpt>
      <trkpt lat="48.57285" lon="7.70003">
        <ele>141</ele>
        <time>2022-06-14T13:31:36+02:00</time>
      </trkpt>
      <trkpt lat="48.57304" lon="7.69965">
        <ele>142</ele>
        <time>2022-06-14T13:32:23+02:00</time>
      </trkpt>
      <trkpt lat="48.57334" lon="7.69933">
        <ele>142</ele>
        <time>2022-06-14T13:33:05+02:00</time>
      </trkpt>
      <trkpt lat="48.5739" lon="7.69874">
        <ele>138</ele>
        <time>2022-06-14T13:34:24+02:00</time>
      </trkpt>
      <trkpt lat="48.57473" lon="7.69834">
        <ele>140</ele>
        <time>2022-06-14T13:36:25+02:00</time>
      </trkpt>
      <trkpt lat="48.57554" lon="7.69737">
        <ele>143</ele>
        <time>2022-06-14T13:38:54+02:00</time>
      </trkpt>
      <trkpt lat="48.57573" lon="7.69662">
        <ele>144</ele>
        <time>2022-06-14T13:40:05+02:00</time>
      </trkpt>
      <trkpt lat="48.57557" lon="7.69588">
        <ele>143</ele>
        <time>2022-06-14T13:41:03+02:00</time>
      </trkpt>
      <trkpt lat="48.57475" lon="7.69522">
        <ele>141</ele>
        <time>2022-06-14T13:42:50+02:00</time>
      </trkpt>
      <trkpt lat="48.57422" lon="7.69465">
        <ele>141</ele>
        <time>2022-06-14T13:44:04+02:00</time>
      </trkpt>
      <trkpt lat="48.57414" lon="7.69422">
        <ele>142</ele>
        <time>2022-06-14T13:44:49+02:00</time>
      </trkpt>
      <trkpt lat="48.57418" lon="7.6935">
        <ele>143</ele>
        <time>2022-06-14T13:45:54+02:00</time>
      </trkpt>
      <trkpt lat="48.57431" lon="7.69305">
        <ele>143</ele>
        <time>2022-06-14T13:46:31+02:00</time>
      </trkpt>
      <trkpt lat="48.57469" lon="7.69245">
        <ele>142</ele>
        <time>2022-06-14T13:47:34+02:00</time>
      </trkpt>
      <trkpt lat="48.57475" lon="7.692">
        <ele>142</ele>
        <time>2022-06-14T13:48:09+02:00</time>
      </trkpt>
      <trkpt lat="48.57434" lon="7.69116">
        <ele>141</ele>
        <time>2022-06-14T13:49:28+02:00</time>
      </trkpt>
      <trkpt lat="48.57436" lon="7.69046">
        <ele>142</ele>
        <time>2022-06-14T13:50:31+02:00</time>
      </trkpt>
      <trkpt lat="48.57444" lon="7.68978">
        <ele>142</ele>
        <time>2022-06-14T13:51:24+02:00</time>
      </trkpt>
      <trkpt lat="48.57471" lon="7.68701">
        <ele>141</ele>
        <time>2022-06-14T13:54:56+02:00</time>
      </trkpt>
      <trkpt lat="48.57491" lon="7.68506">
        <ele>142</ele>
        <time>2022-06-14T13:57:36+02:00</time>
      </trkpt>
      <trkpt lat="48.57498" lon="7.6846">
        <ele>143</ele>
        <time>2022-06-14T13:58:22+02:00</time>
      </trkpt>
      <trkpt lat="48.57692" lon="7.67984">
        <ele>141</ele>
        <time>2022-06-14T14:05:26+02:00</time>
      </trkpt>
      <trkpt lat="48.57703" lon="7.67939">
        <ele>141</ele>
        <time>2022-06-14T14:06:02+02:00</time>
      </trkpt>
      <trkpt lat="48.57842" lon="7.67301">
        <ele>144</ele>
        <time>2022-06-14T14:15:02+02:00</time>
      </trkpt>
      <trkpt lat="48.57888" lon="7.67083">
        <ele>140</ele>
        <time>2022-06-14T14:17:55+02:00</time>
      </trkpt>
      <trkpt lat="48.57977" lon="7.66672">
        <ele>145</ele>
        <time>2022-06-14T14:24:14+02:00</time>
      </trkpt>
      <trkpt lat="48.57979" lon="7.66651">
        <ele>145</ele>
        <time>2022-06-14T14:24:30+02:00</time>
      </trkpt>
      <trkpt lat="48.57987" lon="7.66631">
        <ele>145</ele>
        <time>2022-06-14T14:24:47+02:00</time>
      </trkpt>
      <trkpt lat="48.58042" lon="7.66403">
        <ele>143</ele>
        <time>2022-06-14T14:27:51+02:00</time>
      </trkpt>
      <trkpt lat="48.58045" lon="7.66332">
        <ele>142</ele>
        <time>2022-06-14T14:28:45+02:00</time>
      </trkpt>
      <trkpt lat="48.58018" lon="7.66117">
        <ele>144</ele>
        <time>2022-06-14T14:31:51+02:00</time>
      </trkpt>
      <trkpt lat="48.57974" lon="7.6604">
        <ele>143</ele>
        <time>2022-06-14T14:33:08+02:00</time>
      </trkpt>
      <trkpt lat="48.57946" lon="7.65961">
        <ele>141</ele>
        <time>2022-06-14T14:34:16+02:00</time>
      </trkpt>
      <trkpt lat="48.5794" lon="7.65931">
        <ele>140</ele>
        <time>2022-06-14T14:34:40+02:00</time>
      </trkpt>
      <trkpt lat="48.57944" lon="7.65842">
        <ele>141</ele>
        <time>2022-06-14T14:35:57+02:00</time>
      </trkpt>
      <trkpt lat="48.57929" lon="7.65767">
        <ele>142</ele>
        <time>2022-06-14T14:37:07+02:00</time>
      </trkpt>
      <trkpt lat="48.5796" lon="7.65663">
        <ele>143</ele>
        <time>2022-06-14T14:38:43+02:00</time>
      </trkpt>
      <trkpt lat="48.5796" lon="7.65536">
        <ele>144</ele>
        <time>2022-06-14T14:40:30+02:00</time>
      </trkpt>
      <trkpt lat="48.57928" lon="7.65433">
        <ele>142</ele>
        <time>2022-06-14T14:41:56+02:00</time>
      </trkpt>
      <trkpt lat="48.57997" lon="7.64718">
        <ele>146</ele>
        <time>2022-06-14T14:51:45+02:00</time>
      </trkpt>
      <trkpt lat="48.58001" lon="7.64687">
        <ele>146</ele>
        <time>2022-06-14T14:52:09+02:00</time>
      </trkpt>
      <trkpt lat="48.58037" lon="7.64337">
        <ele>145</ele>
        <time>2022-06-14T14:56:37+02:00</time>
      </trkpt>
      <trkpt lat="48.5804" lon="7.64216">
        <ele>147</ele>
        <time>2022-06-14T14:58:30+02:00</time>
      </trkpt>
      <trkpt lat="48.58031" lon="7.63836">
        <ele>146</ele>
        <time>2022-06-14T15:03:18+02:00</time>
      </trkpt>
      <trkpt lat="48.5804" lon="7.63465">
        <ele>146</ele>
        <time>2022-06-14T15:07:59+02:00</time>
      </trkpt>
      <trkpt lat="48.58083" lon="7.63341">
        <ele>148</ele>
        <time>2022-06-14T15:10:05+02:00</time>
      </trkpt>
      <trkpt lat="48.57545" lon="7.62796">
        <ele>148</ele>
        <time>2022-06-14T15:22:27+02:00</time>
      </trkpt>
      <trkpt lat="48.57502" lon="7.62672">
        <ele>150</ele>
        <time>2022-06-14T15:24:33+02:00</time>
      </trkpt>
      <trkpt lat="48.57075" lon="7.62499">
        <ele>149</ele>
        <time>2022-06-14T15:32:59+02:00</time>
      </trkpt>
      <trkpt lat="48.56918" lon="7.62266">
        <ele>157</ele>
        <time>2022-06-14T15:38:34+02:00</time>
      </trkpt>
      <trkpt lat="48.56728" lon="7.62156">
        <ele>151</ele>
        <time>2022-06-14T15:42:27+02:00</time>
      </trkpt>
      <trkpt lat="48.56659" lon="7.62033">
        <ele>149</ele>
        <time>2022-06-14T15:44:30+02:00</time>
      </trkpt>
      <trkpt lat="48.56419" lon="7.61864">
        <ele>149</ele>
        <time>2022-06-14T15:49:33+02:00</time>
      </trkpt>
      <trkpt lat="48.56314" lon="7.61784">
        <ele>150</ele>
        <time>2022-06-14T15:51:58+02:00</time>
      </trkpt>
      <trkpt lat="48.56205" lon="7.61894">
        <ele>149</ele>
        <time>2022-06-14T15:54:27+02:00</time>
      </trkpt>
      <trkpt lat="48.55956" lon="7.61884">
        <ele>148</ele>
        <time>2022-06-14T15:59:13+02:00</time>
      </trkpt>
      <trkpt lat="48.55618" lon="7.61706">
        <ele>152</ele>
        <time>2022-06-14T16:06:44+02:00</time>
      </trkpt>
      <trkpt lat="48.55489" lon="7.61357">
        <ele>152</ele>
        <time>2022-06-14T16:11:47+02:00</time>
      </trkpt>
      <trkpt lat="48.55389" lon="7.6097">
        <ele>153</ele>
        <time>2022-06-14T16:17:12+02:00</time>
      </trkpt>
      <trkpt lat="48.55376" lon="7.60814">
        <ele>155</ele>
        <time>2022-06-14T16:19:32+02:00</time>
      </trkpt>
      <trkpt lat="48.55396" lon="7.60046">
        <ele>155</ele>
        <time>2022-06-14T16:29:14+02:00</time>
      </trkpt>
      <trkpt lat="48.5537" lon="7.59847">
        <ele>158</ele>
        <time>2022-06-14T16:32:18+02:00</time>
      </trkpt>
      <trkpt lat="48.55264" lon="7.59655">
        <ele>154</ele>
        <time>2022-06-14T16:35:28+02:00</time>
      </trkpt>
      <trkpt lat="48.55267" lon="7.59486">
        <ele>154</ele>
        <time>2022-06-14T16:37:36+02:00</time>
      </trkpt>
      <trkpt lat="48.55293" lon="7.59289">
        <ele>154</ele>
        <time>2022-06-14T16:40:08+02:00</time>
      </trkpt>
      <trkpt lat="48.55491" lon="7.59007">
        <ele>156</ele>
        <time>2022-06-14T16:45:40+02:00</time>
      </trkpt>
      <trkpt lat="48.55596" lon="7.58812">
        <ele>157</ele>
        <time>2022-06-14T16:49:01+02:00</time>
      </trkpt>
      <trkpt lat="48.55639" lon="7.58682">
        <ele>155</ele>
        <time>2022-06-14T16:50:51+02:00</time>
      </trkpt>
      <trkpt lat="48.55686" lon="7.58475">
        <ele>155</ele>
        <time>2022-06-14T16:53:37+02:00</time>
      </trkpt>
      <trkpt lat="48.55751" lon="7.58333">
        <ele>156</ele>
        <time>2022-06-14T16:55:58+02:00</time>
      </trkpt>
      <trkpt lat="48.55817" lon="7.58247">
        <ele>158</ele>
        <time>2022-06-14T16:57:59+02:00</time>
      </trkpt>
      <trkpt lat="48.55699" lon="7.57775">
        <ele>160</ele>
        <time>2022-06-14T17:04:42+02:00</time>
      </trkpt>
      <trkpt lat="48.55664" lon="7.57677">
        <ele>159</ele>
        <time>2022-06-14T17:06:06+02:00</time>
      </trkpt>
      <trkpt lat="48.55675" lon="7.57607">
        <ele>157</ele>
        <time>2022-06-14T17:07:01+02:00</time>
      </trkpt>
      <trkpt lat="48.55772" lon="7.57299">
        <ele>159</ele>
        <time>2022-06-14T17:11:40+02:00</time>
      </trkpt>
      <trkpt lat="48.55767" lon="7.5717">
        <ele>158</ele>
        <time>2022-06-14T17:13:18+02:00</time>
      </trkpt>
      <trkpt lat="48.55894" lon="7.56656">
        <ele>158</ele>
        <time>2022-06-14T17:20:14+02:00</time>
      </trkpt>
      <trkpt lat="48.55985" lon="7.56534">
        <ele>158</ele>
        <time>2022-06-14T17:22:34+02:00</time>
      </trkpt>
      <trkpt lat="48.56229" lon="7.56253">
        <ele>156</ele>
        <time>2022-06-14T17:28:25+02:00</time>
      </trkpt>
      <trkpt lat="48.56357" lon="7.56075">
        <ele>160</ele>
        <time>2022-06-14T17:32:25+02:00</time>
      </trkpt>
      <trkpt lat="48.56382" lon="7.55819">
        <ele>161</ele>
        <time>2022-06-14T17:35:51+02:00</time>
      </trkpt>
      <trkpt lat="48.5637" lon="7.55666">
        <ele>161</ele>
        <time>2022-06-14T17:37:48+02:00</time>
      </trkpt>
      <trkpt lat="48.56516" lon="7.55304">
        <ele>161</ele>
        <time>2022-06-14T17:43:10+02:00</time>
      </trkpt>
      <trkpt lat="48.56535" lon="7.55126">
        <ele>161</ele>
        <time>2022-06-14T17:45:26+02:00</time>
      </trkpt>
      <trkpt lat="48.56613" lon="7.55005">
        <ele>162</ele>
        <time>2022-06-14T17:47:45+02:00</time>
      </trkpt>
      <trkpt lat="48.56752" lon="7.5478">
        <ele>160</ele>
        <time>2022-06-14T17:51:37+02:00</time>
      </trkpt>
      <trkpt lat="48.56731" lon="7.53828">
        <ele>160</ele>
        <time>2022-06-14T18:03:38+02:00</time>
      </trkpt>
      <trkpt lat="48.56661" lon="7.53501">
        <ele>164</ele>
        <time>2022-06-14T18:08:40+02:00</time>
      </trkpt>
      <trkpt lat="48.56661" lon="7.53181">
        <ele>163</ele>
        <time>2022-06-14T18:12:42+02:00</time>
      </trkpt>
      <trkpt lat="48.56694" lon="7.52874">
        <ele>162</ele>
        <time>2022-06-14T18:16:38+02:00</time>
      </trkpt>
      <trkpt lat="48.56456" lon="7.5292">
        <ele>163</ele>
        <time>2022-06-14T18:21:23+02:00</time>
      </trkpt>
      <trkpt lat="48.56417" lon="7.52708">
        <ele>164</ele>
        <time>2022-06-14T18:24:20+02:00</time>
      </trkpt>
      <trkpt lat="48.56419" lon="7.52498">
        <ele>163</ele>
        <time>2022-06-14T18:26:59+02:00</time>
      </trkpt>
      <trkpt lat="48.56454" lon="7.5222">
        <ele>163</ele>
        <time>2022-06-14T18:30:33+02:00</time>
      </trkpt>
      <trkpt lat="48.56477" lon="7.51437">
        <ele>162</ele>
        <time>2022-06-14T18:40:27+02:00</time>
      </trkpt>
      <trkpt lat="48.56307" lon="7.51447">
        <ele>164</ele>
        <time>2022-06-14T18:44:02+02:00</time>
      </trkpt>
      <trkpt lat="48.56048" lon="7.51351">
        <ele>165</ele>
        <time>2022-06-14T18:49:18+02:00</time>
      </trkpt>
      <trkpt lat="48.56076" lon="7.51155">
        <ele>167</ele>
        <time>2022-06-14T18:52:11+02:00</time>
      </trkpt>
      <trkpt lat="48.56142" lon="7.50931">
        <ele>170</ele>
        <time>2022-06-14T18:55:48+02:00</time>
      </trkpt>
      <trkpt lat="48.55969" lon="7.50766">
        <ele>169</ele>
        <time>2022-06-14T18:59:42+02:00</time>
      </trkpt>
      <trkpt lat="48.55926" lon="7.50689">
        <ele>168</ele>
        <time>2022-06-14T19:00:58+02:00</time>
      </trkpt>
      <trkpt lat="48.55825" lon="7.5057">
        <ele>167</ele>
        <time>2022-06-14T19:03:25+02:00</time>
      </trkpt>
      <trkpt lat="48.55761" lon="7.50458">
        <ele>168</ele>
        <time>2022-06-14T19:05:27+02:00</time>
      </trkpt>
      <trkpt lat="48.55685" lon="7.50535">
        <ele>167</ele>
        <time>2022-06-14T19:07:12+02:00</time>
      </trkpt>
      <trkpt lat="48.55646" lon="7.5051">
        <ele>167</ele>
        <time>2022-06-14T19:08:00+02:00</time>
      </trkpt>
      <trkpt lat="48.5563" lon="7.50512">
        <ele>167</ele>
        <time>2022-06-14T19:08:19+02:00</time>
      </trkpt>
      <trkpt lat="48.55586" lon="7.50567">
        <ele>167</ele>
        <time>2022-06-14T19:09:25+02:00</time>
      </trkpt>
      <trkpt lat="48.55468" lon="7.506">
        <ele>167</ele>
        <time>2022-06-14T19:11:42+02:00</time>
      </trkpt>
      <trkpt lat="48.55195" lon="7.50611">
        <ele>169</ele>
        <time>2022-06-14T19:17:16+02:00</time>
      </trkpt>
      <trkpt lat="48.55089" lon="7.50521">
        <ele>170</ele>
        <time>2022-06-14T19:19:46+02:00</time>
      </trkpt>
      <trkpt lat="48.55103" lon="7.50427">
        <ele>169</ele>
        <time>2022-06-14T19:20:59+02:00</time>
      </trkpt>
      <trkpt lat="48.55114" lon="7.5035">
        <ele>170</ele>
        <time>2022-06-14T19:22:09+02:00</time>
      </trkpt>
      <trkpt lat="48.5511" lon="7.50327">
        <ele>171</ele>
        <time>2022-06-14T19:22:38+02:00</time>
      </trkpt>
      <trkpt lat="48.55094" lon="7.50327">
        <ele>170</ele>
        <time>2022-06-14T19:22:57+02:00</time>
      </trkpt>
      <trkpt lat="48.54967" lon="7.50456">
        <ele>170</ele>
        <time>2022-06-14T19:25:52+02:00</time>
      </trkpt>
      <trkpt lat="48.54909" lon="7.50497">
        <ele>172</ele>
        <time>2022-06-14T19:27:26+02:00</time>
      </trkpt>
      <trkpt lat="48.54859" lon="7.50505">
        <ele>173</ele>
        <time>2022-06-14T19:28:34+02:00</time>
      </trkpt>
      <trkpt lat="48.54832" lon="7.50494">
        <ele>173</ele>
        <time>2022-06-14T19:29:06+02:00</time>
      </trkpt>
      <trkpt lat="48.54815" lon="7.50498">
        <ele>173</ele>
        <time>2022-06-14T19:29:25+02:00</time>
      </trkpt>
      <trkpt lat="48.54781" lon="7.50487">
        <ele>172</ele>
        <time>2022-06-14T19:30:06+02:00</time>
      </trkpt>
      <trkpt lat="48.54756" lon="7.50458">
        <ele>172</ele>
        <time>2022-06-14T19:30:42+02:00</time>
      </trkpt>
      <trkpt lat="48.54712" lon="7.50443">
        <ele>172</ele>
        <time>2022-06-14T19:31:34+02:00</time>
      </trkpt>
      <trkpt lat="48.54679" lon="7.50458">
        <ele>172</ele>
        <time>2022-06-14T19:32:13+02:00</time>
      </trkpt>
      <trkpt lat="48.54648" lon="7.50451">
        <ele>173</ele>
        <time>2022-06-14T19:32:59+02:00</time>
      </trkpt>
      <trkpt lat="48.54618" lon="7.50439">
        <ele>172</ele>
        <time>2022-06-14T19:33:35+02:00</time>
      </trkpt>
      <trkpt lat="48.54583" lon="7.50392">
        <ele>172</ele>
        <time>2022-06-14T19:34:29+02:00</time>
      </trkpt>
      <trkpt lat="48.54526" lon="7.5026">
        <ele>175</ele>
        <time>2022-06-14T19:36:59+02:00</time>
      </trkpt>
      <trkpt lat="48.54563" lon="7.50236">
        <ele>173</ele>
        <time>2022-06-14T19:37:45+02:00</time>
      </trkpt>
      <trkpt lat="48.54516" lon="7.50092">
        <ele>174</ele>
        <time>2022-06-14T19:39:57+02:00</time>
      </trkpt>
      <trkpt lat="48.54476" lon="7.50022">
        <ele>174</ele>
        <time>2022-06-14T19:41:08+02:00</time>
      </trkpt>
      <trkpt lat="48.5445" lon="7.49992">
        <ele>175</ele>
        <time>2022-06-14T19:41:55+02:00</time>
      </trkpt>
      <trkpt lat="48.54435" lon="7.49984">
        <ele>175</ele>
        <time>2022-06-14T19:42:14+02:00</time>
      </trkpt>
      <trkpt lat="48.54372" lon="7.4997">
        <ele>175</ele>
        <time>2022-06-14T19:43:26+02:00</time>
      </trkpt>
      <trkpt lat="48.54343" lon="7.49956">
        <ele>175</ele>
        <time>2022-06-14T19:44:01+02:00</time>
      </trkpt>
      <trkpt lat="48.54328" lon="7.4994">
        <ele>175</ele>
        <time>2022-06-14T19:44:22+02:00</time>
      </trkpt>
      <trkpt lat="48.54352" lon="7.49885">
        <ele>175</ele>
        <time>2022-06-14T19:45:12+02:00</time>
      </trkpt>
      <trkpt lat="48.54361" lon="7.4984">
        <ele>175</ele>
        <time>2022-06-14T19:45:48+02:00</time>
      </trkpt>
      <trkpt lat="48.54272" lon="7.49782">
        <ele>175</ele>
        <time>2022-06-14T19:47:38+02:00</time>
      </trkpt>
      <trkpt lat="48.54276" lon="7.49719">
        <ele>176</ele>
        <time>2022-06-14T19:48:36+02:00</time>
      </trkpt>
      <trkpt lat="48.54277" lon="7.49644">
        <ele>177</ele>
        <time>2022-06-14T19:49:43+02:00</time>
      </trkpt>
      <trkpt lat="48.54283" lon="7.49602">
        <ele>177</ele>
        <time>2022-06-14T19:50:15+02:00</time>
      </trkpt>
      <trkpt lat="48.54267" lon="7.496">
        <ele>177</ele>
        <time>2022-06-14T19:50:33+02:00</time>
      </trkpt>
      <trkpt lat="48.54239" lon="7.49614">
        <ele>177</ele>
        <time>2022-06-14T19:51:06+02:00</time>
      </trkpt>
      <trkpt lat="48.5419" lon="7.49617">
        <ele>177</ele>
        <time>2022-06-14T19:52:02+02:00</time>
      </trkpt>
      <trkpt lat="48.54145" lon="7.49633">
        <ele>177</ele>
        <time>2022-06-14T19:52:56+02:00</time>
      </trkpt>
      <trkpt lat="48.54087" lon="7.49668">
        <ele>178</ele>
        <time>2022-06-14T19:54:17+02:00</time>
      </trkpt>
      <trkpt lat="48.54071" lon="7.49644">
        <ele>178</ele>
        <time>2022-06-14T19:54:43+02:00</time>
      </trkpt>
      <trkpt lat="48.54066" lon="7.49636">
        <ele>178</ele>
        <time>2022-06-14T19:54:51+02:00</time>
      </trkpt>
      <trkpt lat="48.54049" lon="7.49634">
        <ele>178</ele>
        <time>2022-06-14T19:55:10+02:00</time>
      </trkpt>
      <trkpt lat="48.54031" lon="7.49652">
        <ele>179</ele>
        <time>2022-06-14T19:55:46+02:00</time>
      </trkpt>
    </trkseg>
  </trk>
</gpx>